createdAt,value
2023-02-27T00:00:59.069Z,2.37
2023-02-27T00:04:01.721Z,3.10
2023-02-27T00:07:04.085Z,3.42
2023-02-27T00:10:08.355Z,2.25
2023-02-27T00:13:10.635Z,2.47
2023-02-27T00:16:13.064Z,1.80
2023-02-27T00:19:15.053Z,2.70
2023-02-27T00:22:16.939Z,3.13
2023-02-27T00:25:19.049Z,2.97
2023-02-27T00:28:21.879Z,2.80
2023-02-27T00:31:24.411Z,2.03
2023-02-27T00:34:26.541Z,2.20
2023-02-27T00:37:28.811Z,2.28
2023-02-27T00:40:36.166Z,3.10
2023-02-27T00:43:38.224Z,2.75
2023-02-27T00:46:40.298Z,3.10
2023-02-27T00:49:45.597Z,2.45
2023-02-27T00:52:47.703Z,3.22
2023-02-27T00:55:49.794Z,2.17
2023-02-27T00:58:52.145Z,3.17
2023-02-27T01:01:54.918Z,2.63
2023-02-27T01:04:57.039Z,2.65
2023-02-27T01:07:58.991Z,3.13
2023-02-27T01:11:01.381Z,2.58
2023-02-27T01:14:03.548Z,2.80
2023-02-27T01:17:06.612Z,1.97
2023-02-27T01:20:12.354Z,2.85
2023-02-27T01:23:14.426Z,2.38
2023-02-27T01:26:20.156Z,2.30
2023-02-27T01:29:23.586Z,2.75
2023-02-27T01:32:25.777Z,2.60
2023-02-27T01:35:28.009Z,2.08
2023-02-27T01:38:30.871Z,2.22
2023-02-27T01:41:34.024Z,2.50
2023-02-27T01:45:17.341Z,2.00
2023-02-27T01:48:36.210Z,2.77
2023-02-27T01:51:43.733Z,1.95
2023-02-27T01:54:45.593Z,2.78
2023-02-27T01:57:49.492Z,2.10
2023-02-27T02:00:51.542Z,2.60
2023-02-27T02:04:12.215Z,1.80
2023-02-27T02:07:19.568Z,1.65
2023-02-27T02:10:26.758Z,2.08
2023-02-27T02:13:29.284Z,1.42
2023-02-27T02:16:45.180Z,2.15
2023-02-27T02:20:15.182Z,1.67
2023-02-27T02:23:32.598Z,1.90
2023-02-27T02:26:47.634Z,2.13
2023-02-27T02:30:13.726Z,2.42
2023-02-27T02:33:33.973Z,2.35
2023-02-27T02:37:13.575Z,2.07
2023-02-27T02:40:30.777Z,2.33
2023-02-27T02:43:49.915Z,2.13
2023-02-27T02:47:03.578Z,1.83
2023-02-27T02:50:26.864Z,2.55
2023-02-27T02:53:56.046Z,1.60
2023-02-27T02:57:11.210Z,2.15
2023-02-27T03:00:21.209Z,2.22
2023-02-27T03:03:35.562Z,2.38
2023-02-27T03:06:50.293Z,1.65
2023-02-27T03:10:10.361Z,1.80
2023-02-27T03:13:21.948Z,2.10
2023-02-27T03:16:44.447Z,2.58
2023-02-27T03:19:52.748Z,2.10
2023-02-27T03:23:00.713Z,2.22
2023-02-27T03:26:05.429Z,2.37
2023-02-27T03:29:12.214Z,2.03
2023-02-27T03:32:21.577Z,1.25
2023-02-27T03:35:32.777Z,1.98
2023-02-27T03:38:56.188Z,1.30
2023-02-27T03:42:16.050Z,1.57
2023-02-27T03:45:54.221Z,2.10
2023-02-27T03:48:56.684Z,2.05
2023-02-27T03:52:01.200Z,1.77
2023-02-27T03:55:13.922Z,1.52
2023-02-27T03:58:18.901Z,1.27
2023-02-27T04:01:23.962Z,2.70
2023-02-27T04:04:31.993Z,1.67
2023-02-27T04:08:05.288Z,1.75
2023-02-27T04:11:26.858Z,1.20
2023-02-27T04:14:57.227Z,0.70
2023-02-27T04:18:11.293Z,1.20
2023-02-27T04:21:31.167Z,1.30
2023-02-27T04:25:18.694Z,1.33
2023-02-27T04:28:47.914Z,1.50
2023-02-27T04:32:01.798Z,1.50
2023-02-27T04:35:11.085Z,1.60
2023-02-27T04:38:19.058Z,1.42
2023-02-27T04:41:25.795Z,1.60
2023-02-27T04:44:32.675Z,1.63
2023-02-27T04:47:41.890Z,1.67
2023-02-27T04:50:57.637Z,1.90
2023-02-27T04:54:10.665Z,1.00
2023-02-27T04:57:19.593Z,1.70
2023-02-27T05:00:28.506Z,2.45
2023-02-27T05:03:37.596Z,1.70
2023-02-27T05:06:43.411Z,1.83
2023-02-27T05:09:55.424Z,1.80
2023-02-27T05:13:06.578Z,1.42
2023-02-27T05:16:20.116Z,1.98
2023-02-27T05:19:22.950Z,1.70
2023-02-27T05:22:39.338Z,1.80
2023-02-27T05:25:58.547Z,1.40
2023-02-27T05:29:17.264Z,1.67
2023-02-27T05:32:34.818Z,2.08
2023-02-27T05:35:54.193Z,1.80
2023-02-27T05:39:04.764Z,1.55
2023-02-27T05:42:38.642Z,1.85
2023-02-27T05:45:44.949Z,1.90
2023-02-27T05:48:59.867Z,1.38
2023-02-27T05:52:05.608Z,1.20
2023-02-27T05:55:21.017Z,1.88
2023-02-27T05:58:35.666Z,1.65
2023-02-27T06:01:41.240Z,1.88
2023-02-27T06:04:43.351Z,1.70
2023-02-27T06:07:45.703Z,1.33
2023-02-27T06:10:49.843Z,1.55
2023-02-27T06:13:52.157Z,2.00
2023-02-27T06:16:54.068Z,1.67
2023-02-27T06:19:58.773Z,1.35
2023-02-27T06:23:02.041Z,1.13
2023-02-27T06:26:11.041Z,1.15
2023-02-27T06:29:13.878Z,1.00
2023-02-27T06:32:16.080Z,1.90
2023-02-27T06:35:18.212Z,1.98
2023-02-27T06:38:20.132Z,1.53
2023-02-27T06:41:23.916Z,1.27
2023-02-27T06:44:27.238Z,1.65
2023-02-27T06:47:29.452Z,1.80
2023-02-27T06:50:32.110Z,1.65
2023-02-27T06:53:46.397Z,1.80
2023-02-27T06:56:49.265Z,1.50
2023-02-27T06:59:51.428Z,1.83
2023-02-27T07:02:53.928Z,1.50
2023-02-27T07:05:59.668Z,1.25
2023-02-27T07:09:07.144Z,1.00
2023-02-27T07:12:17.832Z,1.63
2023-02-27T07:15:31.624Z,1.92
2023-02-27T07:18:34.016Z,1.70
2023-02-27T07:21:42.992Z,1.65
2023-02-27T07:24:46.980Z,1.33
2023-02-27T07:27:50.929Z,1.50
2023-02-27T07:30:56.666Z,1.10
2023-02-27T07:34:07.160Z,1.25
2023-02-27T07:37:10.138Z,1.65
2023-02-27T07:40:15.141Z,1.30
2023-02-27T07:43:18.644Z,1.08
2023-02-27T07:46:24.026Z,1.50
2023-02-27T07:49:26.615Z,1.25
2023-02-27T07:55:40.391Z,1.40
2023-02-27T08:03:16.380Z,2.72
2023-02-27T08:06:43.315Z,1.40
2023-02-27T08:26:02.439Z,1.85
2023-02-27T08:51:10.793Z,1.75
2023-02-27T08:54:21.646Z,2.00
2023-02-27T08:57:24.512Z,2.03
2023-02-27T09:00:41.374Z,2.17
2023-02-27T09:18:10.020Z,1.90
2023-02-27T09:26:13.735Z,2.08
2023-02-27T09:43:00.063Z,1.33
2023-02-27T09:46:57.699Z,2.35
2023-02-27T09:55:03.315Z,2.25
2023-02-27T10:03:31.408Z,1.75
2023-02-27T10:11:08.308Z,1.80
2023-02-27T10:19:33.707Z,2.07
2023-02-27T10:22:50.115Z,1.70
2023-02-27T10:44:01.314Z,1.30
2023-02-27T10:55:40.352Z,1.40
2023-02-27T11:20:44.023Z,2.77
2023-02-27T11:24:12.007Z,3.03
2023-02-27T11:27:29.487Z,3.30
2023-02-27T11:31:02.074Z,2.33
2023-02-27T11:34:12.140Z,3.13
2023-02-27T11:37:37.376Z,2.53
2023-02-27T11:44:50.360Z,3.03
2023-02-27T11:48:13.452Z,3.50
2023-02-27T11:51:58.604Z,3.03
2023-02-27T11:55:06.665Z,2.73
2023-02-27T11:58:23.326Z,2.63
2023-02-27T12:01:34.815Z,3.30
2023-02-27T12:04:56.069Z,3.03
2023-02-27T12:08:12.685Z,2.63
2023-02-27T12:15:56.736Z,2.45
2023-02-27T12:19:37.783Z,1.90
2023-02-27T12:22:49.335Z,2.95
2023-02-27T12:26:23.452Z,3.40
2023-02-27T12:29:36.081Z,3.20
2023-02-27T12:32:49.164Z,2.63
2023-02-27T12:36:00.090Z,2.90
2023-02-27T12:39:04.899Z,2.20
2023-02-27T12:42:25.902Z,2.58
2023-02-27T12:46:00.623Z,3.60
2023-02-27T12:49:24.958Z,2.05
2023-02-27T12:52:55.787Z,2.30
2023-02-27T12:56:08.008Z,3.22
2023-02-27T12:59:46.120Z,3.30
2023-02-27T13:03:01.241Z,3.33
2023-02-27T13:06:09.901Z,2.70
2023-02-27T13:09:35.099Z,3.25
2023-02-27T13:12:43.361Z,3.17
2023-02-27T13:16:11.437Z,3.40
2023-02-27T13:19:25.294Z,3.00
2023-02-27T13:22:57.690Z,4.50
2023-02-27T13:26:05.659Z,3.50
2023-02-27T13:29:15.258Z,3.95
2023-02-27T13:32:45.160Z,2.95
2023-02-27T13:36:22.490Z,2.50
2023-02-27T13:39:44.066Z,3.17
2023-02-27T13:42:49.080Z,3.33
2023-02-27T13:46:25.139Z,2.72
2023-02-27T13:49:31.105Z,3.47
2023-02-27T13:52:38.054Z,3.83
2023-02-27T13:55:41.357Z,3.00
2023-02-27T13:58:44.846Z,3.50
2023-02-27T14:02:22.536Z,3.30
2023-02-27T14:05:40.232Z,2.38
2023-02-27T14:08:52.238Z,3.23
2023-02-27T14:12:02.070Z,3.63
2023-02-27T14:15:35.095Z,2.50
2023-02-27T14:18:59.471Z,1.88
2023-02-27T14:22:14.319Z,3.67
2023-02-27T14:25:23.359Z,3.63
2023-02-27T14:28:34.785Z,3.85
2023-02-27T14:31:40.431Z,3.28
2023-02-27T14:34:42.648Z,3.50
2023-02-27T14:37:45.314Z,4.20
2023-02-27T14:41:06.075Z,3.90
2023-02-27T14:44:25.321Z,3.95
2023-02-27T14:47:37.145Z,3.17
2023-02-27T14:50:41.613Z,4.03
2023-02-27T14:53:44.106Z,3.95
2023-02-27T14:56:57.619Z,3.73
2023-02-27T15:00:01.443Z,3.42
2023-02-27T15:03:20.667Z,3.70
2023-02-27T15:06:39.433Z,3.47
2023-02-27T15:09:43.644Z,3.60
2023-02-27T15:12:52.682Z,3.97
2023-02-27T15:16:23.270Z,3.97
2023-02-27T15:19:31.644Z,4.05
2023-02-27T15:22:40.074Z,3.47
2023-02-27T15:25:44.610Z,2.80
2023-02-27T15:29:00.079Z,2.77
2023-02-27T15:32:04.799Z,3.28
2023-02-27T15:35:24.313Z,3.25
2023-02-27T15:38:36.075Z,3.35
2023-02-27T15:41:38.940Z,3.33
2023-02-27T15:44:44.970Z,3.10
2023-02-27T15:47:49.672Z,3.20
2023-02-27T15:50:58.875Z,3.92
2023-02-27T15:54:09.741Z,3.08
2023-02-27T15:57:14.807Z,3.08
2023-02-27T16:00:21.485Z,3.63
2023-02-27T16:03:24.650Z,3.70
2023-02-27T16:06:35.191Z,9.52
2023-02-27T16:09:38.676Z,3.63
2023-02-27T16:12:45.700Z,3.25
2023-02-27T16:16:26.865Z,3.27
2023-02-27T16:19:33.027Z,3.63
2023-02-27T16:22:37.454Z,4.10
2023-02-27T16:25:41.581Z,3.88
2023-02-27T16:29:02.950Z,3.50
2023-02-27T16:32:06.629Z,3.90
2023-02-27T16:35:24.576Z,3.67
2023-02-27T16:38:31.241Z,3.90
2023-02-27T16:41:39.272Z,3.22
2023-02-27T16:44:47.158Z,3.88
2023-02-27T16:47:52.394Z,4.00
2023-02-27T16:50:58.537Z,6.40
2023-02-27T16:54:01.136Z,4.50
2023-02-27T16:57:07.861Z,3.10
2023-02-27T17:00:20.661Z,4.07
2023-02-27T17:03:23.193Z,4.53
2023-02-27T17:06:30.566Z,3.75
2023-02-27T17:09:33.648Z,4.20
2023-02-27T17:12:36.823Z,4.18
2023-02-27T17:15:42.786Z,4.10
2023-02-27T17:18:47.714Z,3.77
2023-02-27T17:21:54.232Z,3.95
2023-02-27T17:24:56.401Z,4.20
2023-02-27T17:28:00.650Z,4.82
2023-02-27T17:31:15.611Z,4.47
2023-02-27T17:34:20.364Z,4.77
2023-02-27T17:37:24.723Z,5.57
2023-02-27T17:40:27.295Z,4.80
2023-02-27T17:43:32.808Z,5.68
2023-02-27T17:46:35.516Z,5.35
2023-02-27T17:49:38.906Z,4.43
2023-02-27T17:52:41.167Z,5.75
2023-02-27T17:55:45.074Z,6.05
2023-02-27T17:58:47.594Z,5.68
2023-02-27T18:01:50.264Z,5.18
2023-02-27T18:04:56.325Z,5.53
2023-02-27T18:07:58.378Z,6.03
2023-02-27T18:11:01.257Z,6.18
2023-02-27T18:14:05.305Z,5.35
2023-02-27T18:17:12.109Z,7.40
2023-02-27T18:20:14.774Z,5.00
2023-02-27T18:23:17.518Z,5.47
2023-02-27T18:26:30.051Z,4.55
2023-02-27T18:29:41.896Z,4.97
2023-02-27T18:32:45.485Z,3.78
2023-02-27T18:35:48.894Z,5.30
2023-02-27T18:38:54.039Z,4.55
2023-02-27T18:41:56.837Z,4.18
2023-02-27T18:45:00.800Z,4.70
2023-02-27T18:48:05.209Z,4.38
2023-02-27T18:51:13.558Z,3.07
2023-02-27T18:54:19.885Z,3.22
2023-02-27T18:57:25.398Z,4.22
2023-02-27T19:00:31.307Z,2.53
2023-02-27T19:03:37.299Z,4.05
2023-02-27T19:06:42.358Z,3.17
2023-02-27T19:09:47.052Z,3.80
2023-02-27T19:12:51.871Z,3.15
2023-02-27T19:15:56.241Z,3.20
2023-02-27T19:19:00.658Z,3.65
2023-02-27T19:22:03.151Z,3.27
2023-02-27T19:25:06.889Z,2.55
2023-02-27T19:28:11.962Z,3.90
2023-02-27T19:31:15.021Z,3.10
2023-02-27T19:34:17.673Z,3.40
2023-02-27T19:37:19.970Z,3.50
2023-02-27T19:40:23.550Z,3.67
2023-02-27T19:43:26.315Z,4.15
2023-02-27T19:46:34.361Z,3.50
2023-02-27T19:49:40.344Z,3.95
2023-02-27T19:52:44.337Z,2.43
2023-02-27T19:55:47.662Z,3.53
2023-02-27T19:58:51.214Z,4.80
2023-02-27T20:01:53.668Z,4.05
2023-02-27T20:04:57.505Z,4.43
2023-02-27T20:07:59.759Z,4.20
2023-02-27T20:11:07.610Z,4.57
2023-02-27T20:14:10.730Z,5.10
2023-02-27T20:17:22.450Z,4.43
2023-02-27T20:20:24.804Z,4.38
2023-02-27T20:23:29.111Z,4.23
2023-02-27T20:26:43.440Z,4.25
2023-02-27T20:29:56.097Z,3.90
2023-02-27T20:32:59.117Z,4.38
2023-02-27T20:36:17.073Z,3.97
2023-02-27T20:39:20.681Z,4.30
2023-02-27T20:42:23.191Z,4.38
2023-02-27T20:45:25.787Z,4.13
2023-02-27T20:48:28.561Z,4.13
2023-02-27T20:51:37.523Z,4.35
2023-02-27T20:54:41.414Z,3.80
2023-02-27T20:57:44.171Z,3.83
2023-02-27T21:00:48.581Z,4.57
2023-02-27T21:03:52.104Z,4.20
2023-02-27T21:06:56.080Z,4.03
2023-02-27T21:09:58.709Z,4.33
2023-02-27T21:13:01.432Z,4.32
2023-02-27T21:16:05.332Z,3.97
2023-02-27T21:19:09.580Z,4.05
2023-02-27T21:22:11.927Z,4.65
2023-02-27T21:25:15.210Z,4.40
2023-02-27T21:28:17.610Z,4.78
2023-02-27T21:31:22.034Z,5.22
2023-02-27T21:34:28.764Z,4.47
2023-02-27T21:37:30.808Z,4.78
2023-02-27T21:40:35.091Z,4.77
2023-02-27T21:43:37.957Z,5.00
2023-02-27T21:46:41.888Z,5.35
2023-02-27T21:49:44.310Z,4.90
2023-02-27T21:52:46.398Z,4.78
2023-02-27T21:55:50.449Z,5.10
2023-02-27T21:58:52.652Z,4.95
2023-02-27T22:01:58.583Z,4.32
2023-02-27T22:05:00.802Z,4.75
2023-02-27T22:08:05.245Z,4.30
2023-02-27T22:11:08.550Z,4.30
2023-02-27T22:14:14.755Z,4.22
2023-02-27T22:17:16.789Z,4.22
2023-02-27T22:20:20.274Z,5.05
2023-02-27T22:23:22.327Z,5.75
2023-02-27T22:26:28.265Z,5.30
2023-02-27T22:29:31.770Z,4.53
2023-02-27T22:32:37.797Z,5.68
2023-02-27T22:35:39.776Z,4.53
2023-02-27T22:38:43.023Z,4.32
2023-02-27T22:41:46.254Z,4.47
2023-02-27T22:44:48.666Z,4.60
2023-02-27T22:47:50.654Z,4.80
2023-02-27T22:51:22.344Z,4.28
2023-02-27T22:54:24.392Z,3.97
2023-02-27T22:57:26.489Z,4.50
2023-02-27T23:00:28.538Z,4.75
2023-02-27T23:03:30.576Z,6.05
2023-02-27T23:06:36.836Z,5.18
2023-02-27T23:09:39.973Z,4.88
2023-02-27T23:12:42.176Z,5.47
2023-02-27T23:15:46.739Z,5.80
2023-02-27T23:18:55.152Z,6.13
2023-02-27T23:22:00.303Z,6.72
2023-02-27T23:25:07.020Z,4.93
2023-02-27T23:28:09.114Z,7.00
2023-02-27T23:31:11.665Z,6.07
2023-02-27T23:34:13.887Z,6.00
2023-02-27T23:37:18.292Z,6.50
2023-02-27T23:40:22.760Z,5.28
2023-02-27T23:43:43.977Z,5.20
2023-02-27T23:46:46.457Z,5.55
2023-02-27T23:49:48.408Z,5.35
2023-02-27T23:52:52.246Z,5.63
2023-02-27T23:55:54.944Z,5.80
2023-02-27T23:59:03.744Z,5.57
